createdAt,value
2022-08-07T00:00:30.301Z,97750.77
2022-08-07T00:03:10.971Z,97752.09
2022-08-07T00:05:39.041Z,97749.29
2022-08-07T00:08:07.872Z,97745.67
2022-08-07T00:10:36.469Z,97748.64
2022-08-07T00:13:25.508Z,97747.31
2022-08-07T00:15:53.857Z,97753.98
2022-08-07T00:18:25.341Z,97760.48
2022-08-07T00:21:07.814Z,97761.34
2022-08-07T00:23:36.919Z,97763.17
2022-08-07T00:26:18.772Z,97761.80
2022-08-07T00:28:57.537Z,97763.59
2022-08-07T00:31:25.612Z,97762.60
2022-08-07T00:34:05.150Z,97767.93
2022-08-07T00:36:42.621Z,97769.69
2022-08-07T00:39:16.368Z,97766.77
2022-08-07T00:42:01.469Z,97764.81
2022-08-07T00:44:41.276Z,97769.47
2022-08-07T00:48:05.387Z,97767.25
2022-08-07T00:50:20.637Z,97764.65
2022-08-07T00:52:47.240Z,97772.29
2022-08-07T00:55:17.503Z,97779.80
2022-08-07T00:57:55.860Z,97777.43
2022-08-07T01:00:24.385Z,97774.27
2022-08-07T01:02:51.419Z,97776.80
2022-08-07T01:05:20.351Z,97772.73
2022-08-07T01:07:52.290Z,97770.27
2022-08-07T01:10:20.366Z,97769.40
2022-08-07T01:12:54.030Z,97773.95
2022-08-07T01:16:01.169Z,97774.04
2022-08-07T01:18:16.812Z,97779.49
2022-08-07T01:21:03.863Z,97783.27
2022-08-07T01:23:46.660Z,97780.27
2022-08-07T01:26:17.063Z,97777.23
2022-08-07T01:28:50.987Z,97777.39
2022-08-07T01:31:42.506Z,97772.95
2022-08-07T01:34:13.986Z,97776.73
2022-08-07T01:36:44.001Z,97777.60
2022-08-07T01:39:16.760Z,97779.06
2022-08-07T01:42:07.518Z,97780.31
2022-08-07T01:44:37.913Z,97780.86
2022-08-07T01:48:16.657Z,97778.73
2022-08-07T01:49:53.680Z,97777.55
2022-08-07T01:52:25.936Z,97781.84
2022-08-07T01:54:56.005Z,97784.42
2022-08-07T01:57:33.621Z,97783.80
2022-08-07T02:00:28.999Z,97781.41
2022-08-07T02:03:19.381Z,97786.33
2022-08-07T02:06:00.840Z,97779.73
2022-08-07T02:08:39.925Z,97779.59
2022-08-07T02:11:10.639Z,97778.21
2022-08-07T02:14:02.653Z,97776.94
2022-08-07T02:16:33.929Z,97780.09
2022-08-07T02:20:07.241Z,97782.82
2022-08-07T02:21:57.784Z,97784.19
2022-08-07T02:24:29.576Z,97789.45
2022-08-07T02:27:01.465Z,97788.04
2022-08-07T02:29:32.707Z,97789.34
2022-08-07T02:32:04.982Z,97791.04
2022-08-07T02:34:37.248Z,97792.45
2022-08-07T02:37:18.261Z,97795.23
2022-08-07T02:40:02.546Z,97799.73
2022-08-07T02:42:36.388Z,97798.05
2022-08-07T02:46:00.680Z,97800.30
2022-08-07T02:47:55.078Z,97799.42
2022-08-07T02:50:26.472Z,97802.58
2022-08-07T02:53:11.459Z,97799.83
2022-08-07T02:56:03.536Z,97797.94
2022-08-07T02:58:36.895Z,97798.34
2022-08-07T03:01:16.055Z,97800.80
2022-08-07T03:03:50.455Z,97802.98
2022-08-07T03:06:34.580Z,97809.56
2022-08-07T03:09:06.985Z,97809.66
2022-08-07T03:11:52.249Z,97811.58
2022-08-07T03:14:27.752Z,97812.81
2022-08-07T03:16:56.808Z,97814.71
2022-08-07T03:19:29.008Z,97808.94
2022-08-07T03:21:58.707Z,97811.85
2022-08-07T03:24:28.083Z,97817.51
2022-08-07T03:27:04.423Z,97811.84
2022-08-07T03:29:50.463Z,97811.41
2022-08-07T03:32:25.310Z,97820.67
2022-08-07T03:35:01.034Z,97820.12
2022-08-07T03:37:55.119Z,97822.43
2022-08-07T03:40:36.239Z,97827.20
2022-08-07T03:43:13.584Z,97831.97
2022-08-07T03:45:43.691Z,97835.48
2022-08-07T03:48:16.202Z,97839.20
2022-08-07T03:50:52.128Z,97833.29
2022-08-07T03:53:49.984Z,97833.74
2022-08-07T03:56:33.553Z,97836.76
2022-08-07T03:59:08.707Z,97831.89
2022-08-07T04:01:43.042Z,97827.92
2022-08-07T04:04:11.281Z,97833.45
2022-08-07T04:06:50.858Z,97831.05
2022-08-07T04:09:23.252Z,97835.13
2022-08-07T04:12:24.346Z,97837.11
2022-08-07T04:14:46.091Z,97840.28
2022-08-07T04:17:21.090Z,97842.20
2022-08-07T04:19:55.187Z,97844.33
2022-08-07T04:22:29.638Z,97849.70
2022-08-07T04:25:02.273Z,97846.22
2022-08-07T04:27:35.867Z,97847.76
2022-08-07T04:30:20.940Z,97846.07
2022-08-07T04:32:59.322Z,97846.04
2022-08-07T04:35:35.275Z,97853.02
2022-08-07T04:38:11.513Z,97852.21
2022-08-07T04:40:51.731Z,97857.75
2022-08-07T04:44:11.344Z,97858.90
2022-08-07T04:47:04.993Z,97857.07
2022-08-07T04:50:17.066Z,97851.94
2022-08-07T04:53:39.916Z,97851.39
2022-08-07T04:58:15.844Z,97850.98
2022-08-07T05:00:12.490Z,97851.48
2022-08-07T05:02:43.894Z,97856.15
2022-08-07T05:05:53.633Z,97857.61
2022-08-07T05:09:46.303Z,97859.34
2022-08-07T05:12:26.736Z,97859.38
2022-08-07T05:15:15.687Z,97862.47
2022-08-07T05:18:01.448Z,97864.16
2022-08-07T05:20:43.156Z,97867.66
2022-08-07T05:23:29.831Z,97869.40
2022-08-07T05:26:11.505Z,97867.71
2022-08-07T05:28:49.981Z,97872.15
2022-08-07T05:31:21.688Z,97871.05
2022-08-07T05:34:04.332Z,97875.46
2022-08-07T05:36:35.807Z,97871.10
2022-08-07T05:40:05.631Z,97872.13
2022-08-07T05:42:01.862Z,97872.20
2022-08-07T05:44:35.900Z,97874.36
2022-08-07T05:47:17.845Z,97874.71
2022-08-07T05:49:50.059Z,97874.52
2022-08-07T05:52:32.405Z,97876.55
2022-08-07T05:55:07.036Z,97877.22
2022-08-07T05:57:42.426Z,97880.89
2022-08-07T06:00:16.593Z,97878.10
2022-08-07T06:02:51.738Z,97878.35
2022-08-07T06:05:28.079Z,97880.25
2022-08-07T06:08:29.144Z,97881.67
2022-08-07T06:10:46.388Z,97883.33
2022-08-07T06:13:19.855Z,97883.14
2022-08-07T06:16:08.807Z,97884.00
2022-08-07T06:18:39.763Z,97887.14
2022-08-07T06:22:16.688Z,97886.64
2022-08-07T06:24:53.033Z,97886.62
2022-08-07T06:26:46.194Z,97891.58
2022-08-07T06:29:14.574Z,97889.67
2022-08-07T06:31:49.874Z,97887.88
2022-08-07T06:34:19.679Z,97887.23
2022-08-07T06:36:51.902Z,97886.65
2022-08-07T06:40:17.323Z,97886.87
2022-08-07T06:42:18.972Z,97887.80
2022-08-07T06:45:06.619Z,97885.14
2022-08-07T06:47:57.041Z,97879.94
2022-08-07T06:50:30.449Z,97879.39
2022-08-07T06:53:01.126Z,97875.86
2022-08-07T06:55:52.621Z,97872.38
2022-08-07T06:58:27.419Z,97867.47
2022-08-07T07:01:07.015Z,97871.42
2022-08-07T07:03:47.529Z,97872.77
2022-08-07T07:06:24.006Z,97873.06
2022-08-07T07:08:54.791Z,97874.27
2022-08-07T07:12:08.310Z,97874.52
2022-08-07T07:14:14.161Z,97879.11
2022-08-07T07:16:49.697Z,97880.33
2022-08-07T07:19:54.713Z,97877.83
2022-08-07T07:22:36.322Z,97876.98
2022-08-07T07:26:31.041Z,97878.38
2022-08-07T07:28:42.507Z,97881.48
2022-08-07T07:31:46.660Z,97876.21
2022-08-07T07:34:21.225Z,97875.59
2022-08-07T07:36:53.822Z,97876.98
2022-08-07T07:39:25.465Z,97875.60
2022-08-07T07:42:08.876Z,97872.15
2022-08-07T07:44:49.737Z,97874.96
2022-08-07T07:47:23.827Z,97873.66
2022-08-07T07:50:36.039Z,97874.02
2022-08-07T07:52:43.871Z,97874.61
2022-08-07T07:55:17.411Z,97871.39
2022-08-07T07:57:54.057Z,97869.52
2022-08-07T08:00:29.361Z,97869.31
2022-08-07T08:04:06.061Z,97866.04
2022-08-07T08:06:11.633Z,97868.27
2022-08-07T08:08:42.600Z,97863.84
2022-08-07T08:11:13.825Z,97865.09
2022-08-07T08:13:52.872Z,97862.95
2022-08-07T08:16:50.621Z,97861.06
2022-08-07T08:20:17.116Z,97857.52
2022-08-07T08:22:32.748Z,97859.91
2022-08-07T08:25:27.093Z,97855.19
2022-08-07T08:28:16.797Z,97862.98
2022-08-07T08:30:59.436Z,97860.52
2022-08-07T08:33:36.357Z,97859.52
2022-08-07T08:36:09.695Z,97852.38
2022-08-07T08:38:43.319Z,97853.30
2022-08-07T08:41:17.369Z,97856.52
2022-08-07T08:44:07.463Z,97854.79
2022-08-07T08:47:17.250Z,97850.83
2022-08-07T08:50:34.964Z,97846.02
2022-08-07T08:53:48.484Z,97850.98
2022-08-07T08:56:47.615Z,97846.48
2022-08-07T08:59:41.827Z,97846.98
2022-08-07T09:02:37.934Z,97852.73
2022-08-07T09:05:32.338Z,97852.00
2022-08-07T09:08:08.962Z,97849.84
2022-08-07T09:10:59.974Z,97842.45
2022-08-07T09:14:06.678Z,97841.58
2022-08-07T09:16:57.048Z,97843.91
2022-08-07T09:20:24.933Z,97842.33
2022-08-07T09:24:31.665Z,97841.39
2022-08-07T09:27:13.415Z,97837.33
2022-08-07T09:30:05.421Z,97838.01
2022-08-07T09:33:41.334Z,97832.51
2022-08-07T09:36:29.257Z,97831.83
2022-08-07T09:39:54.017Z,97832.34
2022-08-07T09:42:17.242Z,97832.56
2022-08-07T09:47:52.194Z,97827.89
2022-08-07T09:48:12.283Z,97826.73
2022-08-07T09:50:53.608Z,97820.64
2022-08-07T09:53:24.116Z,97821.83
2022-08-07T09:56:57.338Z,97816.56
2022-08-07T09:59:44.675Z,97812.91
2022-08-07T10:04:05.602Z,97812.02
2022-08-07T10:05:59.566Z,97808.55
2022-08-07T10:09:09.404Z,97809.02
2022-08-07T10:12:15.522Z,97807.02
2022-08-07T10:15:04.633Z,97803.48
2022-08-07T10:18:01.830Z,97809.83
2022-08-07T10:21:19.499Z,97807.07
2022-08-07T10:24:21.534Z,97802.43
2022-08-07T10:27:12.196Z,97805.23
2022-08-07T10:30:12.143Z,97803.32
2022-08-07T10:33:14.771Z,97803.86
2022-08-07T10:36:12.473Z,97805.90
2022-08-07T10:39:15.492Z,97800.69
2022-08-07T10:42:00.336Z,97798.08
2022-08-07T10:44:45.558Z,97799.78
2022-08-07T10:47:55.019Z,97796.55
2022-08-07T10:50:42.063Z,97788.33
2022-08-07T10:53:25.902Z,97785.36
2022-08-07T10:56:11.156Z,97787.20
2022-08-07T10:59:45.316Z,97777.29
2022-08-07T11:02:39.938Z,97772.98
2022-08-07T11:05:35.712Z,97773.19
2022-08-07T11:08:54.320Z,97773.02
2022-08-07T11:11:37.670Z,97767.23
2022-08-07T11:14:43.411Z,97771.78
2022-08-07T11:18:03.430Z,97766.20
2022-08-07T11:20:45.756Z,97763.35
2022-08-07T11:23:46.597Z,97752.83
2022-08-07T11:26:33.234Z,97747.45
2022-08-07T11:29:41.262Z,97734.92
2022-08-07T11:32:25.409Z,97727.80
2022-08-07T11:34:57.195Z,97723.56
2022-08-07T11:38:10.278Z,97727.49
2022-08-07T11:41:05.874Z,97729.06
2022-08-07T11:44:10.561Z,97723.40
2022-08-07T11:47:21.788Z,97725.62
2022-08-07T11:50:34.714Z,97717.23
2022-08-07T11:54:01.663Z,97714.53
2022-08-07T11:57:15.306Z,97714.98
2022-08-07T12:00:12.045Z,97709.21
2022-08-07T12:03:44.207Z,97703.66
2022-08-07T12:06:44.839Z,97702.33
2022-08-07T12:09:33.518Z,97700.36
2022-08-07T12:12:11.557Z,97704.33
2022-08-07T12:14:44.305Z,97696.29
2022-08-07T12:17:33.877Z,97695.01
2022-08-07T12:20:30.284Z,97685.80
2022-08-07T12:24:06.129Z,97679.47
2022-08-07T12:27:13.256Z,97675.14
2022-08-07T12:30:02.852Z,97668.88
2022-08-07T12:32:39.521Z,97676.27
2022-08-07T12:35:11.869Z,97673.38
2022-08-07T12:38:09.261Z,97673.80
2022-08-07T12:40:47.492Z,97665.72
2022-08-07T12:44:02.414Z,97670.88
2022-08-07T12:46:36.653Z,97667.20
2022-08-07T12:49:44.774Z,97659.52
2022-08-07T12:52:36.184Z,97656.83
2022-08-07T12:55:17.484Z,97658.84
2022-08-07T12:58:00.129Z,97657.98
2022-08-07T13:01:00.265Z,97658.01
2022-08-07T13:04:01.896Z,97657.52
2022-08-07T13:06:54.492Z,97659.37
2022-08-07T13:10:38.034Z,97657.73
2022-08-07T13:13:48.363Z,97654.08
2022-08-07T13:16:27.956Z,97647.77
2022-08-07T13:19:21.838Z,97648.65
2022-08-07T13:22:19.734Z,97651.63
2022-08-07T13:25:00.236Z,97645.08
2022-08-07T13:28:11.064Z,97646.16
2022-08-07T13:30:43.840Z,97651.67
2022-08-07T13:34:30.595Z,97648.58
2022-08-07T13:36:25.763Z,97650.64
2022-08-07T13:39:11.077Z,97647.38
2022-08-07T13:41:54.618Z,97643.15
2022-08-07T13:44:34.528Z,97648.80
2022-08-07T13:47:09.188Z,97647.15
2022-08-07T13:50:32.540Z,97641.14
2022-08-07T13:52:41.020Z,97636.02
2022-08-07T13:55:19.724Z,97639.70
2022-08-07T13:58:27.456Z,97635.24
2022-08-07T14:00:58.176Z,97638.89
2022-08-07T14:04:05.160Z,97637.75
2022-08-07T14:06:20.436Z,97640.27
2022-08-07T14:08:53.660Z,97638.08
2022-08-07T14:11:23.159Z,97642.64
2022-08-07T14:13:56.135Z,97641.39
2022-08-07T14:16:35.969Z,97645.71
2022-08-07T14:19:17.870Z,97649.95
2022-08-07T14:22:10.719Z,97655.02
2022-08-07T14:24:50.798Z,97659.88
2022-08-07T14:28:10.716Z,97664.33
2022-08-07T14:30:32.506Z,97663.85
2022-08-07T14:33:04.720Z,97659.14
2022-08-07T14:35:44.499Z,97655.17
2022-08-07T14:38:26.535Z,97665.51
2022-08-07T14:44:10.022Z,97673.25
2022-08-07T14:46:51.682Z,97671.30
2022-08-07T14:49:58.111Z,97672.05
2022-08-07T14:52:11.857Z,97667.05
2022-08-07T14:54:45.361Z,97663.82
2022-08-07T14:57:19.047Z,97659.82
2022-08-07T15:00:05.383Z,97660.28
2022-08-07T15:02:36.891Z,97671.10
2022-08-07T15:05:19.824Z,97665.80
2022-08-07T15:07:51.140Z,97666.90
2022-08-07T15:13:25.463Z,97677.52
2022-08-07T15:16:10.869Z,97684.36
2022-08-07T15:18:47.033Z,97680.61
2022-08-07T15:21:59.562Z,97678.31
2022-08-07T15:25:12.958Z,97677.00
2022-08-07T15:27:21.369Z,97677.98
2022-08-07T15:33:03.941Z,97690.96
2022-08-07T15:36:04.899Z,97694.04
2022-08-07T15:38:51.005Z,97694.98
2022-08-07T15:42:42.375Z,97695.53
2022-08-07T15:44:14.461Z,97700.54
2022-08-07T15:46:51.936Z,97700.73
2022-08-07T15:50:05.021Z,97703.52
2022-08-07T15:52:30.354Z,97705.48
2022-08-07T15:55:02.989Z,97708.83
2022-08-07T15:57:39.629Z,97710.04
2022-08-07T16:00:31.417Z,97710.34
2022-08-07T16:03:20.945Z,97712.36
2022-08-07T16:06:06.760Z,97714.64
2022-08-07T16:08:42.631Z,97715.96
2022-08-07T16:12:12.245Z,97715.01
2022-08-07T16:15:55.210Z,97717.73
2022-08-07T16:18:49.557Z,97716.00
2022-08-07T16:22:33.656Z,97721.73
2022-08-07T16:25:52.502Z,97723.94
2022-08-07T16:30:06.345Z,97729.58
2022-08-07T16:31:51.754Z,97728.83
2022-08-07T16:34:48.464Z,97729.09
2022-08-07T16:38:05.527Z,97730.75
2022-08-07T16:41:02.139Z,97734.23
2022-08-07T16:44:31.789Z,97742.38
2022-08-07T16:47:16.762Z,97744.59
2022-08-07T16:50:26.819Z,97748.60
2022-08-07T16:53:14.838Z,97745.34
2022-08-07T16:56:05.384Z,97751.85
2022-08-07T16:59:15.187Z,97758.21
2022-08-07T17:02:13.310Z,97762.91
2022-08-07T17:06:19.670Z,97764.95
2022-08-07T17:09:08.763Z,97767.11
2022-08-07T17:12:01.517Z,97766.93
2022-08-07T17:14:51.591Z,97766.63
2022-08-07T17:17:46.120Z,97770.77
2022-08-07T17:20:41.109Z,97771.11
2022-08-07T17:23:22.166Z,97770.62
2022-08-07T17:26:51.047Z,97770.04
2022-08-07T17:30:14.949Z,97776.08
2022-08-07T17:32:56.888Z,97781.23
2022-08-07T17:35:54.707Z,97783.67
2022-08-07T17:38:34.141Z,97786.75
2022-08-07T17:42:03.476Z,97785.08
2022-08-07T17:44:33.783Z,97783.02
2022-08-07T17:47:41.882Z,97786.11
2022-08-07T17:50:54.040Z,97790.67
2022-08-07T17:54:06.333Z,97792.68
2022-08-07T17:56:49.840Z,97793.98
2022-08-07T17:59:35.805Z,97797.16
2022-08-07T18:02:53.887Z,97794.90
2022-08-07T18:06:03.354Z,97794.03
2022-08-07T18:09:00.575Z,97793.18
2022-08-07T18:12:16.287Z,97794.42
2022-08-07T18:14:59.601Z,97801.22
2022-08-07T18:18:46.849Z,97807.30
2022-08-07T18:21:06.591Z,97810.58
2022-08-07T18:24:33.434Z,97819.59
2022-08-07T18:27:17.986Z,97826.20
2022-08-07T18:30:31.570Z,97828.69
2022-08-07T18:33:12.019Z,97835.13
2022-08-07T18:36:32.641Z,97841.19
2022-08-07T18:40:08.055Z,97839.33
2022-08-07T18:42:19.031Z,97839.31
2022-08-07T18:45:44.659Z,97838.84
2022-08-07T18:50:05.434Z,97843.11
2022-08-07T18:52:35.031Z,97847.08
2022-08-07T18:54:37.773Z,97847.45
2022-08-07T18:57:36.804Z,97846.55
2022-08-07T19:00:32.372Z,97845.15
2022-08-07T19:03:37.865Z,97848.52
2022-08-07T19:06:16.335Z,97846.42
2022-08-07T19:08:55.797Z,97853.11
2022-08-07T19:12:05.147Z,97851.38
2022-08-07T19:16:05.526Z,97856.15
2022-08-07T19:18:34.859Z,97863.24
2022-08-07T19:21:47.621Z,97867.45
2022-08-07T19:24:31.001Z,97873.19
2022-08-07T19:28:30.745Z,97875.30
2022-08-07T19:31:00.843Z,97877.11
2022-08-07T19:33:02.584Z,97877.46
2022-08-07T19:35:40.170Z,97877.95
2022-08-07T19:38:16.132Z,97877.64
2022-08-07T19:40:49.266Z,97876.60
2022-08-07T19:43:49.977Z,97874.91
2022-08-07T19:46:17.902Z,97873.41
2022-08-07T19:48:53.582Z,97874.14
2022-08-07T19:51:52.927Z,97878.05
2022-08-07T19:54:33.414Z,97878.26
2022-08-07T19:57:56.806Z,97879.58
2022-08-07T20:00:08.829Z,97880.45
2022-08-07T20:02:52.248Z,97877.73
2022-08-07T20:05:29.241Z,97874.90
2022-08-07T20:08:04.046Z,97874.45
2022-08-07T20:10:54.272Z,97872.66
2022-08-07T20:13:33.734Z,97872.40
2022-08-07T20:16:03.929Z,97876.98
2022-08-07T20:18:34.487Z,97877.23
2022-08-07T20:21:21.080Z,97879.86
2022-08-07T20:24:03.199Z,97877.59
2022-08-07T20:26:45.134Z,97878.40
2022-08-07T20:29:49.098Z,97881.90
2022-08-07T20:32:23.091Z,97878.64
2022-08-07T20:34:59.385Z,97879.14
2022-08-07T20:37:55.526Z,97879.63
2022-08-07T20:40:32.298Z,97878.66
2022-08-07T20:43:09.692Z,97879.20
2022-08-07T20:46:29.629Z,97880.56
2022-08-07T20:48:42.230Z,97880.90
2022-08-07T20:51:30.178Z,97881.05
2022-08-07T20:54:12.159Z,97883.69
2022-08-07T20:56:49.406Z,97881.73
2022-08-07T21:00:05.460Z,97879.20
2022-08-07T21:02:39.443Z,97881.73
2022-08-07T21:05:18.239Z,97888.27
2022-08-07T21:08:12.619Z,97890.78
2022-08-07T21:10:42.655Z,97890.96
2022-08-07T21:13:18.817Z,97891.64
2022-08-07T21:16:00.985Z,97891.36
2022-08-07T21:18:41.262Z,97891.52
2022-08-07T21:21:16.821Z,97888.93
2022-08-07T21:24:21.243Z,97893.52
2022-08-07T21:27:12.664Z,97900.14
2022-08-07T21:30:00.811Z,97903.41
2022-08-07T21:33:01.851Z,97906.69
2022-08-07T21:36:05.047Z,97911.62
2022-08-07T21:39:05.534Z,97913.47
2022-08-07T21:42:41.969Z,97913.23
2022-08-07T21:46:11.145Z,97915.08
2022-08-07T21:48:56.734Z,97912.20
2022-08-07T21:51:51.753Z,97918.70
2022-08-07T21:54:33.442Z,97914.92
2022-08-07T21:57:52.381Z,97915.77
2022-08-07T22:00:25.062Z,97916.30
2022-08-07T22:03:31.191Z,97912.70
2022-08-07T22:06:07.314Z,97914.15
2022-08-07T22:09:10.392Z,97913.50
2022-08-07T22:12:04.825Z,97914.80
2022-08-07T22:14:59.729Z,97915.27
2022-08-07T22:17:51.575Z,97914.40
2022-08-07T22:20:37.315Z,97915.41
2022-08-07T22:23:28.223Z,97923.30
2022-08-07T22:26:22.744Z,97924.02
2022-08-07T22:29:33.769Z,97924.44
2022-08-07T22:32:29.632Z,97929.88
2022-08-07T22:35:02.196Z,97933.22
2022-08-07T22:38:03.693Z,97931.86
2022-08-07T22:41:08.960Z,97934.52
2022-08-07T22:43:56.247Z,97936.94
2022-08-07T22:47:02.697Z,97934.05
2022-08-07T22:49:57.084Z,97936.73
2022-08-07T22:52:37.782Z,97940.66
2022-08-07T22:55:42.690Z,97935.69
2022-08-07T22:58:50.391Z,97936.33
2022-08-07T23:02:00.960Z,97941.77
2022-08-07T23:04:58.134Z,97940.46
2022-08-07T23:08:07.275Z,97938.26
2022-08-07T23:11:13.294Z,97938.68
2022-08-07T23:14:15.624Z,97939.52
2022-08-07T23:17:29.039Z,97943.98
2022-08-07T23:20:40.421Z,97942.86
2022-08-07T23:24:06.006Z,97943.54
2022-08-07T23:26:18.751Z,97940.73
2022-08-07T23:29:42.570Z,97941.20
2022-08-07T23:34:18.928Z,97942.78
2022-08-07T23:36:03.255Z,97942.55
2022-08-07T23:38:43.239Z,97943.94
2022-08-07T23:42:01.825Z,97946.83
2022-08-07T23:45:33.391Z,97944.98
2022-08-07T23:48:25.028Z,97941.34
2022-08-07T23:53:01.037Z,97941.38
2022-08-07T23:54:51.921Z,97943.02
2022-08-07T23:57:34.766Z,97940.80
